sensor_id;sensor_type;location;lat;lon;timestamp;P1;durP1;ratioP1;P2;durP2;ratioP2
15063;SDS011;7631;52.088;5.088;2023-05-10T00:01:25;6.33;;;5.23;;
15063;SDS011;7631;52.088;5.088;2023-05-10T00:03:50;5.60;;;4.97;;
15063;SDS011;7631;52.088;5.088;2023-05-10T00:06:16;5.40;;;4.90;;
15063;SDS011;7631;52.088;5.088;2023-05-10T00:08:41;5.97;;;5.37;;
15063;SDS011;7631;52.088;5.088;2023-05-10T00:11:06;6.07;;;5.47;;
15063;SDS011;7631;52.088;5.088;2023-05-10T00:13:32;6.40;;;5.53;;
15063;SDS011;7631;52.088;5.088;2023-05-10T00:15:57;5.93;;;5.30;;
15063;SDS011;7631;52.088;5.088;2023-05-10T00:18:22;5.93;;;5.30;;
15063;SDS011;7631;52.088;5.088;2023-05-10T00:20:47;6.23;;;5.37;;
15063;SDS011;7631;52.088;5.088;2023-05-10T00:23:13;5.97;;;5.30;;
15063;SDS011;7631;52.088;5.088;2023-05-10T00:25:39;6.03;;;5.13;;
15063;SDS011;7631;52.088;5.088;2023-05-10T00:28:04;5.80;;;5.20;;
15063;SDS011;7631;52.088;5.088;2023-05-10T00:30:29;6.57;;;5.63;;
15063;SDS011;7631;52.088;5.088;2023-05-10T00:32:54;6.63;;;5.87;;
15063;SDS011;7631;52.088;5.088;2023-05-10T00:35:20;7.33;;;6.03;;
15063;SDS011;7631;52.088;5.088;2023-05-10T00:37:46;5.90;;;5.30;;
15063;SDS011;7631;52.088;5.088;2023-05-10T00:40:11;6.23;;;5.27;;
15063;SDS011;7631;52.088;5.088;2023-05-10T00:42:37;6.00;;;5.40;;
15063;SDS011;7631;52.088;5.088;2023-05-10T00:45:02;6.83;;;6.07;;
15063;SDS011;7631;52.088;5.088;2023-05-10T00:47:27;6.63;;;5.63;;
15063;SDS011;7631;52.088;5.088;2023-05-10T00:49:53;6.80;;;6.10;;
15063;SDS011;7631;52.088;5.088;2023-05-10T00:52:18;7.33;;;6.20;;
15063;SDS011;7631;52.088;5.088;2023-05-10T00:54:44;7.10;;;5.80;;
15063;SDS011;7631;52.088;5.088;2023-05-10T00:57:09;7.87;;;6.27;;
15063;SDS011;7631;52.088;5.088;2023-05-10T00:59:34;7.50;;;6.67;;
15063;SDS011;7631;52.088;5.088;2023-05-10T01:02:00;7.27;;;6.20;;
15063;SDS011;7631;52.088;5.088;2023-05-10T01:04:26;7.73;;;6.93;;
15063;SDS011;7631;52.088;5.088;2023-05-10T01:06:51;7.27;;;6.30;;
15063;SDS011;7631;52.088;5.088;2023-05-10T01:09:17;8.20;;;7.07;;
15063;SDS011;7631;52.088;5.088;2023-05-10T01:11:43;7.73;;;6.87;;
15063;SDS011;7631;52.088;5.088;2023-05-10T01:14:08;7.67;;;6.73;;
15063;SDS011;7631;52.088;5.088;2023-05-10T01:16:36;8.27;;;7.00;;
15063;SDS011;7631;52.088;5.088;2023-05-10T01:19:02;9.03;;;6.90;;
15063;SDS011;7631;52.088;5.088;2023-05-10T01:21:33;8.83;;;7.23;;
15063;SDS011;7631;52.088;5.088;2023-05-10T01:32:26;9.10;;;7.40;;
15063;SDS011;7631;52.088;5.088;2023-05-10T01:34:57;10.23;;;8.37;;
15063;SDS011;7631;52.088;5.088;2023-05-10T01:37:33;10.40;;;7.83;;
15063;SDS011;7631;52.088;5.088;2023-05-10T01:42:36;11.17;;;8.80;;
15063;SDS011;7631;52.088;5.088;2023-05-10T01:45:18;10.43;;;8.30;;
15063;SDS011;7631;52.088;5.088;2023-05-10T01:47:46;10.60;;;7.83;;
15063;SDS011;7631;52.088;5.088;2023-05-10T01:50:22;12.40;;;8.67;;
15063;SDS011;7631;52.088;5.088;2023-05-10T01:52:51;11.37;;;8.90;;
15063;SDS011;7631;52.088;5.088;2023-05-10T01:55:20;11.97;;;9.03;;
15063;SDS011;7631;52.088;5.088;2023-05-10T01:57:46;10.97;;;8.83;;
15063;SDS011;7631;52.088;5.088;2023-05-10T02:00:13;11.07;;;9.03;;
15063;SDS011;7631;52.088;5.088;2023-05-10T02:02:40;12.30;;;8.83;;
15063;SDS011;7631;52.088;5.088;2023-05-10T02:05:07;11.33;;;9.17;;
15063;SDS011;7631;52.088;5.088;2023-05-10T02:07:33;13.53;;;10.17;;
15063;SDS011;7631;52.088;5.088;2023-05-10T02:10:00;13.47;;;10.00;;
15063;SDS011;7631;52.088;5.088;2023-05-10T02:12:25;14.27;;;10.23;;
15063;SDS011;7631;52.088;5.088;2023-05-10T02:14:52;12.63;;;9.40;;
15063;SDS011;7631;52.088;5.088;2023-05-10T02:17:18;14.73;;;10.97;;
15063;SDS011;7631;52.088;5.088;2023-05-10T02:19:44;13.77;;;10.40;;
15063;SDS011;7631;52.088;5.088;2023-05-10T02:22:10;13.60;;;10.93;;
15063;SDS011;7631;52.088;5.088;2023-05-10T02:24:36;15.00;;;10.83;;
15063;SDS011;7631;52.088;5.088;2023-05-10T02:27:02;14.80;;;11.30;;
15063;SDS011;7631;52.088;5.088;2023-05-10T02:29:28;15.13;;;11.60;;
15063;SDS011;7631;52.088;5.088;2023-05-10T02:31:54;15.73;;;11.87;;
15063;SDS011;7631;52.088;5.088;2023-05-10T02:34:23;16.73;;;11.20;;
15063;SDS011;7631;52.088;5.088;2023-05-10T02:36:49;16.23;;;11.70;;
15063;SDS011;7631;52.088;5.088;2023-05-10T02:39:15;15.67;;;11.67;;
15063;SDS011;7631;52.088;5.088;2023-05-10T02:41:41;18.90;;;13.30;;
15063;SDS011;7631;52.088;5.088;2023-05-10T02:44:07;15.53;;;12.17;;
15063;SDS011;7631;52.088;5.088;2023-05-10T02:46:33;17.90;;;12.87;;
15063;SDS011;7631;52.088;5.088;2023-05-10T02:48:58;17.33;;;13.03;;
15063;SDS011;7631;52.088;5.088;2023-05-10T02:51:24;17.50;;;12.20;;
15063;SDS011;7631;52.088;5.088;2023-05-10T02:53:50;16.23;;;12.07;;
15063;SDS011;7631;52.088;5.088;2023-05-10T02:56:19;18.00;;;12.70;;
15063;SDS011;7631;52.088;5.088;2023-05-10T02:58:47;18.23;;;12.50;;
15063;SDS011;7631;52.088;5.088;2023-05-10T03:01:12;17.07;;;12.47;;
15063;SDS011;7631;52.088;5.088;2023-05-10T03:03:38;17.90;;;13.10;;
15063;SDS011;7631;52.088;5.088;2023-05-10T03:06:03;19.17;;;13.77;;
15063;SDS011;7631;52.088;5.088;2023-05-10T03:08:29;18.37;;;13.10;;
15063;SDS011;7631;52.088;5.088;2023-05-10T03:11:16;18.20;;;13.10;;
15063;SDS011;7631;52.088;5.088;2023-05-10T03:13:56;18.73;;;13.47;;
15063;SDS011;7631;52.088;5.088;2023-05-10T03:16:25;19.63;;;13.77;;
15063;SDS011;7631;52.088;5.088;2023-05-10T03:21:26;19.30;;;13.70;;
15063;SDS011;7631;52.088;5.088;2023-05-10T03:23:57;20.63;;;14.07;;
15063;SDS011;7631;52.088;5.088;2023-05-10T03:26:24;19.47;;;14.17;;
15063;SDS011;7631;52.088;5.088;2023-05-10T03:28:50;21.13;;;14.07;;
15063;SDS011;7631;52.088;5.088;2023-05-10T03:31:17;20.33;;;14.90;;
15063;SDS011;7631;52.088;5.088;2023-05-10T03:33:49;22.27;;;15.67;;
15063;SDS011;7631;52.088;5.088;2023-05-10T03:36:14;19.37;;;13.50;;
15063;SDS011;7631;52.088;5.088;2023-05-10T03:38:40;21.37;;;15.53;;
15063;SDS011;7631;52.088;5.088;2023-05-10T03:41:05;20.03;;;13.80;;
15063;SDS011;7631;52.088;5.088;2023-05-10T03:43:30;18.57;;;13.67;;
15063;SDS011;7631;52.088;5.088;2023-05-10T03:45:55;21.33;;;15.10;;
15063;SDS011;7631;52.088;5.088;2023-05-10T03:48:20;22.50;;;15.00;;
15063;SDS011;7631;52.088;5.088;2023-05-10T03:50:46;18.60;;;13.37;;
15063;SDS011;7631;52.088;5.088;2023-05-10T03:53:11;20.17;;;14.63;;
15063;SDS011;7631;52.088;5.088;2023-05-10T03:55:37;19.50;;;13.97;;
15063;SDS011;7631;52.088;5.088;2023-05-10T03:58:02;22.00;;;14.67;;
15063;SDS011;7631;52.088;5.088;2023-05-10T04:00:27;20.63;;;14.27;;
15063;SDS011;7631;52.088;5.088;2023-05-10T04:02:52;21.13;;;15.17;;
15063;SDS011;7631;52.088;5.088;2023-05-10T04:05:18;24.03;;;15.53;;
15063;SDS011;7631;52.088;5.088;2023-05-10T04:07:43;19.40;;;14.13;;
15063;SDS011;7631;52.088;5.088;2023-05-10T04:10:10;21.27;;;14.43;;
15063;SDS011;7631;52.088;5.088;2023-05-10T04:12:36;19.97;;;15.00;;
15063;SDS011;7631;52.088;5.088;2023-05-10T04:15:01;22.37;;;15.73;;
15063;SDS011;7631;52.088;5.088;2023-05-10T04:17:26;19.87;;;14.40;;
15063;SDS011;7631;52.088;5.088;2023-05-10T04:19:52;19.47;;;14.00;;
15063;SDS011;7631;52.088;5.088;2023-05-10T04:22:19;18.47;;;13.70;;
15063;SDS011;7631;52.088;5.088;2023-05-10T04:24:45;20.20;;;15.20;;
15063;SDS011;7631;52.088;5.088;2023-05-10T04:27:10;21.00;;;15.43;;
15063;SDS011;7631;52.088;5.088;2023-05-10T04:29:36;20.30;;;14.93;;
15063;SDS011;7631;52.088;5.088;2023-05-10T04:32:01;23.33;;;16.40;;
15063;SDS011;7631;52.088;5.088;2023-05-10T04:34:27;20.60;;;14.80;;
15063;SDS011;7631;52.088;5.088;2023-05-10T04:36:52;20.83;;;15.17;;
15063;SDS011;7631;52.088;5.088;2023-05-10T04:39:17;19.00;;;14.03;;
15063;SDS011;7631;52.088;5.088;2023-05-10T04:41:43;22.57;;;15.37;;
15063;SDS011;7631;52.088;5.088;2023-05-10T04:44:08;21.63;;;15.17;;
15063;SDS011;7631;52.088;5.088;2023-05-10T04:46:33;19.70;;;14.80;;
15063;SDS011;7631;52.088;5.088;2023-05-10T04:48:58;20.23;;;14.80;;
15063;SDS011;7631;52.088;5.088;2023-05-10T04:51:23;20.77;;;15.23;;
15063;SDS011;7631;52.088;5.088;2023-05-10T04:53:49;20.93;;;14.43;;
15063;SDS011;7631;52.088;5.088;2023-05-10T04:56:14;20.73;;;15.77;;
15063;SDS011;7631;52.088;5.088;2023-05-10T04:58:39;22.00;;;16.40;;
15063;SDS011;7631;52.088;5.088;2023-05-10T05:01:05;22.03;;;16.00;;
15063;SDS011;7631;52.088;5.088;2023-05-10T05:03:32;21.23;;;15.73;;
15063;SDS011;7631;52.088;5.088;2023-05-10T05:05:57;21.60;;;16.53;;
15063;SDS011;7631;52.088;5.088;2023-05-10T05:08:22;23.47;;;16.93;;
15063;SDS011;7631;52.088;5.088;2023-05-10T05:10:48;20.53;;;15.97;;
15063;SDS011;7631;52.088;5.088;2023-05-10T05:13:15;21.10;;;15.93;;
15063;SDS011;7631;52.088;5.088;2023-05-10T05:15:40;23.37;;;16.90;;
15063;SDS011;7631;52.088;5.088;2023-05-10T05:18:05;21.47;;;15.80;;
15063;SDS011;7631;52.088;5.088;2023-05-10T05:20:32;23.77;;;17.03;;
15063;SDS011;7631;52.088;5.088;2023-05-10T05:22:57;22.00;;;16.03;;
15063;SDS011;7631;52.088;5.088;2023-05-10T05:25:22;23.17;;;16.87;;
15063;SDS011;7631;52.088;5.088;2023-05-10T05:27:47;22.13;;;16.07;;
15063;SDS011;7631;52.088;5.088;2023-05-10T05:30:12;23.13;;;16.33;;
15063;SDS011;7631;52.088;5.088;2023-05-10T05:32:38;22.87;;;17.03;;
15063;SDS011;7631;52.088;5.088;2023-05-10T05:35:03;21.80;;;16.87;;
15063;SDS011;7631;52.088;5.088;2023-05-10T05:37:28;22.63;;;16.20;;
15063;SDS011;7631;52.088;5.088;2023-05-10T05:39:54;23.63;;;16.87;;
15063;SDS011;7631;52.088;5.088;2023-05-10T05:42:19;21.53;;;16.87;;
15063;SDS011;7631;52.088;5.088;2023-05-10T05:44:45;21.03;;;15.90;;
15063;SDS011;7631;52.088;5.088;2023-05-10T05:47:11;23.10;;;16.43;;
15063;SDS011;7631;52.088;5.088;2023-05-10T05:49:37;21.80;;;16.03;;
15063;SDS011;7631;52.088;5.088;2023-05-10T05:52:02;23.73;;;16.30;;
15063;SDS011;7631;52.088;5.088;2023-05-10T05:54:28;21.67;;;15.30;;
15063;SDS011;7631;52.088;5.088;2023-05-10T05:56:57;21.83;;;15.90;;
15063;SDS011;7631;52.088;5.088;2023-05-10T05:59:22;19.90;;;15.33;;
15063;SDS011;7631;52.088;5.088;2023-05-10T06:01:47;21.53;;;15.40;;
15063;SDS011;7631;52.088;5.088;2023-05-10T06:04:13;19.73;;;14.83;;
15063;SDS011;7631;52.088;5.088;2023-05-10T06:06:38;21.23;;;15.43;;
15063;SDS011;7631;52.088;5.088;2023-05-10T06:09:03;18.67;;;15.00;;
15063;SDS011;7631;52.088;5.088;2023-05-10T06:11:29;18.90;;;14.77;;
15063;SDS011;7631;52.088;5.088;2023-05-10T06:13:55;21.13;;;14.33;;
15063;SDS011;7631;52.088;5.088;2023-05-10T06:16:21;18.70;;;14.40;;
15063;SDS011;7631;52.088;5.088;2023-05-10T06:18:52;18.37;;;13.97;;
15063;SDS011;7631;52.088;5.088;2023-05-10T06:33:57;19.40;;;14.53;;
15063;SDS011;7631;52.088;5.088;2023-05-10T06:36:22;19.03;;;13.13;;
15063;SDS011;7631;52.088;5.088;2023-05-10T06:38:49;17.13;;;13.33;;
15063;SDS011;7631;52.088;5.088;2023-05-10T06:41:16;14.97;;;12.57;;
15063;SDS011;7631;52.088;5.088;2023-05-10T06:43:41;16.70;;;12.67;;
15063;SDS011;7631;52.088;5.088;2023-05-10T06:46:08;16.50;;;13.27;;
15063;SDS011;7631;52.088;5.088;2023-05-10T06:48:33;16.10;;;12.63;;
15063;SDS011;7631;52.088;5.088;2023-05-10T06:51:02;15.43;;;12.10;;
15063;SDS011;7631;52.088;5.088;2023-05-10T06:53:36;15.90;;;11.90;;
15063;SDS011;7631;52.088;5.088;2023-05-10T06:56:04;14.60;;;11.07;;
15063;SDS011;7631;52.088;5.088;2023-05-10T06:58:29;16.20;;;12.57;;
15063;SDS011;7631;52.088;5.088;2023-05-10T07:01:01;14.27;;;11.57;;
15063;SDS011;7631;52.088;5.088;2023-05-10T07:03:26;14.50;;;11.97;;
15063;SDS011;7631;52.088;5.088;2023-05-10T07:05:51;13.57;;;11.17;;
15063;SDS011;7631;52.088;5.088;2023-05-10T07:08:16;15.27;;;12.27;;
15063;SDS011;7631;52.088;5.088;2023-05-10T07:10:43;15.33;;;11.23;;
15063;SDS011;7631;52.088;5.088;2023-05-10T07:13:08;12.60;;;10.70;;
15063;SDS011;7631;52.088;5.088;2023-05-10T07:15:33;14.30;;;11.80;;
15063;SDS011;7631;52.088;5.088;2023-05-10T07:17:58;13.50;;;10.90;;
15063;SDS011;7631;52.088;5.088;2023-05-10T07:20:24;14.53;;;11.17;;
15063;SDS011;7631;52.088;5.088;2023-05-10T07:22:49;12.30;;;10.10;;
15063;SDS011;7631;52.088;5.088;2023-05-10T07:25:14;14.30;;;10.27;;
15063;SDS011;7631;52.088;5.088;2023-05-10T07:27:39;13.23;;;10.33;;
15063;SDS011;7631;52.088;5.088;2023-05-10T07:30:05;11.00;;;9.03;;
15063;SDS011;7631;52.088;5.088;2023-05-10T07:32:30;12.33;;;10.20;;
15063;SDS011;7631;52.088;5.088;2023-05-10T07:34:56;11.73;;;10.13;;
15063;SDS011;7631;52.088;5.088;2023-05-10T07:37:21;11.40;;;9.50;;
15063;SDS011;7631;52.088;5.088;2023-05-10T07:39:46;11.53;;;9.37;;
15063;SDS011;7631;52.088;5.088;2023-05-10T07:42:12;12.53;;;9.40;;
15063;SDS011;7631;52.088;5.088;2023-05-10T07:44:37;10.93;;;9.40;;
15063;SDS011;7631;52.088;5.088;2023-05-10T07:47:02;11.20;;;9.50;;
15063;SDS011;7631;52.088;5.088;2023-05-10T07:49:30;12.47;;;9.57;;
15063;SDS011;7631;52.088;5.088;2023-05-10T07:51:55;10.50;;;8.57;;
15063;SDS011;7631;52.088;5.088;2023-05-10T07:54:20;9.37;;;7.80;;
15063;SDS011;7631;52.088;5.088;2023-05-10T07:56:55;10.63;;;8.27;;
15063;SDS011;7631;52.088;5.088;2023-05-10T07:59:20;10.07;;;8.37;;
15063;SDS011;7631;52.088;5.088;2023-05-10T08:01:46;9.93;;;8.90;;
15063;SDS011;7631;52.088;5.088;2023-05-10T08:04:11;8.83;;;7.53;;
15063;SDS011;7631;52.088;5.088;2023-05-10T08:06:36;10.23;;;8.17;;
15063;SDS011;7631;52.088;5.088;2023-05-10T08:09:02;10.10;;;8.37;;
15063;SDS011;7631;52.088;5.088;2023-05-10T08:11:27;10.03;;;8.83;;
15063;SDS011;7631;52.088;5.088;2023-05-10T08:13:53;10.07;;;7.67;;
15063;SDS011;7631;52.088;5.088;2023-05-10T08:16:18;9.17;;;8.27;;
15063;SDS011;7631;52.088;5.088;2023-05-10T08:18:44;8.80;;;7.73;;
15063;SDS011;7631;52.088;5.088;2023-05-10T08:21:10;8.80;;;7.50;;
15063;SDS011;7631;52.088;5.088;2023-05-10T08:23:38;8.57;;;7.63;;
15063;SDS011;7631;52.088;5.088;2023-05-10T08:26:03;10.30;;;7.83;;
15063;SDS011;7631;52.088;5.088;2023-05-10T08:28:29;8.43;;;6.83;;
15063;SDS011;7631;52.088;5.088;2023-05-10T08:30:55;9.07;;;7.30;;
15063;SDS011;7631;52.088;5.088;2023-05-10T08:33:21;8.73;;;7.37;;
15063;SDS011;7631;52.088;5.088;2023-05-10T08:35:46;9.07;;;7.33;;
15063;SDS011;7631;52.088;5.088;2023-05-10T08:38:11;7.70;;;6.70;;
15063;SDS011;7631;52.088;5.088;2023-05-10T08:40:37;7.90;;;6.37;;
15063;SDS011;7631;52.088;5.088;2023-05-10T08:43:06;9.57;;;7.27;;
15063;SDS011;7631;52.088;5.088;2023-05-10T08:45:33;7.37;;;6.53;;
15063;SDS011;7631;52.088;5.088;2023-05-10T08:47:59;6.90;;;6.20;;
15063;SDS011;7631;52.088;5.088;2023-05-10T08:50:26;8.10;;;6.53;;
15063;SDS011;7631;52.088;5.088;2023-05-10T08:52:51;8.07;;;6.60;;
15063;SDS011;7631;52.088;5.088;2023-05-10T08:55:17;7.33;;;6.07;;
15063;SDS011;7631;52.088;5.088;2023-05-10T08:57:43;8.00;;;6.73;;
15063;SDS011;7631;52.088;5.088;2023-05-10T09:00:08;7.30;;;6.17;;
15063;SDS011;7631;52.088;5.088;2023-05-10T09:02:34;7.00;;;6.30;;
15063;SDS011;7631;52.088;5.088;2023-05-10T09:05:00;6.80;;;6.10;;
15063;SDS011;7631;52.088;5.088;2023-05-10T09:07:26;7.00;;;5.63;;
15063;SDS011;7631;52.088;5.088;2023-05-10T09:09:51;7.03;;;5.53;;
15063;SDS011;7631;52.088;5.088;2023-05-10T09:12:17;8.17;;;7.10;;
15063;SDS011;7631;52.088;5.088;2023-05-10T09:14:42;7.67;;;5.90;;
15063;SDS011;7631;52.088;5.088;2023-05-10T09:17:09;5.47;;;4.97;;
15063;SDS011;7631;52.088;5.088;2023-05-10T09:19:34;5.90;;;5.30;;
15063;SDS011;7631;52.088;5.088;2023-05-10T09:21:59;5.93;;;5.33;;
15063;SDS011;7631;52.088;5.088;2023-05-10T09:24:27;6.90;;;5.70;;
15063;SDS011;7631;52.088;5.088;2023-05-10T09:26:52;6.83;;;5.27;;
15063;SDS011;7631;52.088;5.088;2023-05-10T09:29:17;6.70;;;5.50;;
15063;SDS011;7631;52.088;5.088;2023-05-10T09:31:52;5.10;;;4.60;;
15063;SDS011;7631;52.088;5.088;2023-05-10T09:34:30;5.77;;;5.17;;
15063;SDS011;7631;52.088;5.088;2023-05-10T09:36:59;5.63;;;5.03;;
15063;SDS011;7631;52.088;5.088;2023-05-10T09:39:32;5.57;;;4.93;;
15063;SDS011;7631;52.088;5.088;2023-05-10T09:41:58;5.50;;;4.80;;
15063;SDS011;7631;52.088;5.088;2023-05-10T09:44:25;4.90;;;4.50;;
15063;SDS011;7631;52.088;5.088;2023-05-10T09:46:50;5.50;;;4.90;;
15063;SDS011;7631;52.088;5.088;2023-05-10T09:49:17;5.13;;;4.30;;
15063;SDS011;7631;52.088;5.088;2023-05-10T09:51:42;5.17;;;4.63;;
15063;SDS011;7631;52.088;5.088;2023-05-10T09:54:08;5.67;;;4.70;;
15063;SDS011;7631;52.088;5.088;2023-05-10T09:56:35;4.93;;;4.43;;
15063;SDS011;7631;52.088;5.088;2023-05-10T09:59:05;5.00;;;4.50;;
15063;SDS011;7631;52.088;5.088;2023-05-10T10:01:30;4.97;;;4.47;;
15063;SDS011;7631;52.088;5.088;2023-05-10T10:03:56;4.57;;;4.17;;
15063;SDS011;7631;52.088;5.088;2023-05-10T10:06:24;4.80;;;4.30;;
15063;SDS011;7631;52.088;5.088;2023-05-10T10:08:50;4.60;;;4.03;;
15063;SDS011;7631;52.088;5.088;2023-05-10T10:11:15;5.17;;;4.60;;
15063;SDS011;7631;52.088;5.088;2023-05-10T10:13:41;4.27;;;3.87;;
15063;SDS011;7631;52.088;5.088;2023-05-10T10:16:06;4.60;;;4.10;;
15063;SDS011;7631;52.088;5.088;2023-05-10T10:18:33;4.30;;;3.90;;
15063;SDS011;7631;52.088;5.088;2023-05-10T10:20:58;4.40;;;3.90;;
15063;SDS011;7631;52.088;5.088;2023-05-10T10:23:24;4.77;;;4.33;;
15063;SDS011;7631;52.088;5.088;2023-05-10T10:25:49;5.40;;;4.77;;
15063;SDS011;7631;52.088;5.088;2023-05-10T10:28:32;4.03;;;3.63;;
15063;SDS011;7631;52.088;5.088;2023-05-10T10:31:02;4.60;;;4.10;;
15063;SDS011;7631;52.088;5.088;2023-05-10T10:33:39;5.67;;;4.40;;
15063;SDS011;7631;52.088;5.088;2023-05-10T10:36:05;5.33;;;4.53;;
15063;SDS011;7631;52.088;5.088;2023-05-10T10:38:37;3.70;;;3.40;;
15063;SDS011;7631;52.088;5.088;2023-05-10T10:41:28;4.80;;;4.23;;
15063;SDS011;7631;52.088;5.088;2023-05-10T10:46:58;4.40;;;4.00;;
15063;SDS011;7631;52.088;5.088;2023-05-10T10:49:23;4.17;;;3.77;;
15063;SDS011;7631;52.088;5.088;2023-05-10T10:54:32;4.40;;;3.83;;
15063;SDS011;7631;52.088;5.088;2023-05-10T10:57:10;4.10;;;3.70;;
15063;SDS011;7631;52.088;5.088;2023-05-10T10:59:36;3.70;;;3.40;;
15063;SDS011;7631;52.088;5.088;2023-05-10T11:02:06;3.57;;;3.27;;
15063;SDS011;7631;52.088;5.088;2023-05-10T11:04:41;3.43;;;3.13;;
15063;SDS011;7631;52.088;5.088;2023-05-10T11:07:16;3.50;;;3.20;;
15063;SDS011;7631;52.088;5.088;2023-05-10T11:09:41;3.90;;;3.50;;
15063;SDS011;7631;52.088;5.088;2023-05-10T11:12:08;3.90;;;3.40;;
15063;SDS011;7631;52.088;5.088;2023-05-10T11:14:33;3.30;;;3.00;;
15063;SDS011;7631;52.088;5.088;2023-05-10T11:16:59;4.80;;;3.87;;
15063;SDS011;7631;52.088;5.088;2023-05-10T11:19:27;3.40;;;3.10;;
15063;SDS011;7631;52.088;5.088;2023-05-10T11:24:30;3.90;;;3.50;;
15063;SDS011;7631;52.088;5.088;2023-05-10T11:26:55;4.10;;;3.00;;
15063;SDS011;7631;52.088;5.088;2023-05-10T11:29:21;3.30;;;3.00;;
15063;SDS011;7631;52.088;5.088;2023-05-10T11:31:47;3.80;;;3.40;;
15063;SDS011;7631;52.088;5.088;2023-05-10T11:34:22;3.50;;;3.20;;
15063;SDS011;7631;52.088;5.088;2023-05-10T11:36:50;3.57;;;3.00;;
15063;SDS011;7631;52.088;5.088;2023-05-10T11:39:16;4.13;;;3.17;;
15063;SDS011;7631;52.088;5.088;2023-05-10T11:41:41;3.20;;;2.90;;
15063;SDS011;7631;52.088;5.088;2023-05-10T11:44:07;3.57;;;3.27;;
15063;SDS011;7631;52.088;5.088;2023-05-10T11:46:34;3.50;;;3.20;;
15063;SDS011;7631;52.088;5.088;2023-05-10T11:49:00;3.07;;;2.77;;
15063;SDS011;7631;52.088;5.088;2023-05-10T11:51:35;3.10;;;2.80;;
15063;SDS011;7631;52.088;5.088;2023-05-10T11:54:02;3.30;;;3.00;;
15063;SDS011;7631;52.088;5.088;2023-05-10T11:56:29;3.50;;;3.20;;
15063;SDS011;7631;52.088;5.088;2023-05-10T11:58:57;4.00;;;2.93;;
15063;SDS011;7631;52.088;5.088;2023-05-10T12:01:23;2.93;;;2.63;;
15063;SDS011;7631;52.088;5.088;2023-05-10T12:03:48;3.00;;;2.67;;
15063;SDS011;7631;52.088;5.088;2023-05-10T12:06:14;3.17;;;2.87;;
15063;SDS011;7631;52.088;5.088;2023-05-10T12:08:43;3.07;;;2.70;;
15063;SDS011;7631;52.088;5.088;2023-05-10T12:11:09;3.07;;;2.67;;
15063;SDS011;7631;52.088;5.088;2023-05-10T12:13:39;3.57;;;3.27;;
15063;SDS011;7631;52.088;5.088;2023-05-10T12:16:14;3.20;;;2.90;;
15063;SDS011;7631;52.088;5.088;2023-05-10T12:18:40;4.27;;;3.43;;
15063;SDS011;7631;52.088;5.088;2023-05-10T12:21:07;3.67;;;3.20;;
15063;SDS011;7631;52.088;5.088;2023-05-10T12:23:34;3.67;;;3.23;;
15063;SDS011;7631;52.088;5.088;2023-05-10T12:26:03;4.43;;;3.60;;
15063;SDS011;7631;52.088;5.088;2023-05-10T12:28:31;3.83;;;3.43;;
15063;SDS011;7631;52.088;5.088;2023-05-10T12:30:57;5.00;;;3.83;;
15063;SDS011;7631;52.088;5.088;2023-05-10T12:33:23;4.50;;;4.00;;
15063;SDS011;7631;52.088;5.088;2023-05-10T12:35:49;5.00;;;4.50;;
15063;SDS011;7631;52.088;5.088;2023-05-10T12:38:34;5.43;;;4.40;;
15063;SDS011;7631;52.088;5.088;2023-05-10T12:41:00;5.30;;;4.47;;
15063;SDS011;7631;52.088;5.088;2023-05-10T12:43:26;6.73;;;4.93;;
15063;SDS011;7631;52.088;5.088;2023-05-10T12:45:51;6.07;;;4.50;;
15063;SDS011;7631;52.088;5.088;2023-05-10T12:48:17;4.97;;;3.73;;
15063;SDS011;7631;52.088;5.088;2023-05-10T12:50:42;4.83;;;3.93;;
15063;SDS011;7631;52.088;5.088;2023-05-10T12:53:07;4.07;;;3.67;;
15063;SDS011;7631;52.088;5.088;2023-05-10T12:55:33;6.20;;;4.40;;
15063;SDS011;7631;52.088;5.088;2023-05-10T12:57:58;6.17;;;4.73;;
15063;SDS011;7631;52.088;5.088;2023-05-10T13:00:24;6.10;;;5.07;;
15063;SDS011;7631;52.088;5.088;2023-05-10T13:02:49;5.87;;;5.23;;
15063;SDS011;7631;52.088;5.088;2023-05-10T13:05:14;7.43;;;5.03;;
15063;SDS011;7631;52.088;5.088;2023-05-10T13:07:40;6.57;;;4.90;;
15063;SDS011;7631;52.088;5.088;2023-05-10T13:10:05;7.00;;;5.20;;
15063;SDS011;7631;52.088;5.088;2023-05-10T13:12:31;5.30;;;4.50;;
15063;SDS011;7631;52.088;5.088;2023-05-10T13:14:56;7.33;;;5.37;;
15063;SDS011;7631;52.088;5.088;2023-05-10T13:17:22;6.03;;;5.43;;
15063;SDS011;7631;52.088;5.088;2023-05-10T13:19:47;6.03;;;4.83;;
15063;SDS011;7631;52.088;5.088;2023-05-10T13:22:12;7.60;;;5.23;;
15063;SDS011;7631;52.088;5.088;2023-05-10T13:24:38;6.10;;;5.20;;
15063;SDS011;7631;52.088;5.088;2023-05-10T13:27:14;6.40;;;5.37;;
15063;SDS011;7631;52.088;5.088;2023-05-10T13:33:09;6.53;;;4.90;;
15063;SDS011;7631;52.088;5.088;2023-05-10T13:35:44;8.93;;;6.13;;
15063;SDS011;7631;52.088;5.088;2023-05-10T13:38:10;7.00;;;5.73;;
15063;SDS011;7631;52.088;5.088;2023-05-10T13:40:35;7.77;;;6.23;;
15063;SDS011;7631;52.088;5.088;2023-05-10T13:43:01;8.63;;;6.67;;
15063;SDS011;7631;52.088;5.088;2023-05-10T13:45:26;8.27;;;6.40;;
15063;SDS011;7631;52.088;5.088;2023-05-10T13:47:52;7.43;;;6.03;;
15063;SDS011;7631;52.088;5.088;2023-05-10T13:50:17;9.47;;;6.40;;
15063;SDS011;7631;52.088;5.088;2023-05-10T13:52:43;6.67;;;5.67;;
15063;SDS011;7631;52.088;5.088;2023-05-10T13:55:08;9.30;;;6.03;;
15063;SDS011;7631;52.088;5.088;2023-05-10T13:57:33;8.13;;;6.27;;
15063;SDS011;7631;52.088;5.088;2023-05-10T14:00:00;8.20;;;6.43;;
15063;SDS011;7631;52.088;5.088;2023-05-10T14:02:26;6.93;;;5.93;;
15063;SDS011;7631;52.088;5.088;2023-05-10T14:04:52;6.20;;;5.37;;
15063;SDS011;7631;52.088;5.088;2023-05-10T14:07:17;7.67;;;5.93;;
15063;SDS011;7631;52.088;5.088;2023-05-10T14:09:42;6.63;;;5.40;;
15063;SDS011;7631;52.088;5.088;2023-05-10T14:12:08;7.23;;;5.53;;
15063;SDS011;7631;52.088;5.088;2023-05-10T14:14:33;7.60;;;6.07;;
15063;SDS011;7631;52.088;5.088;2023-05-10T14:16:58;7.47;;;5.70;;
15063;SDS011;7631;52.088;5.088;2023-05-10T14:19:24;6.57;;;5.37;;
15063;SDS011;7631;52.088;5.088;2023-05-10T14:21:49;6.10;;;5.13;;
15063;SDS011;7631;52.088;5.088;2023-05-10T14:24:14;6.87;;;5.60;;
15063;SDS011;7631;52.088;5.088;2023-05-10T14:26:40;7.87;;;5.40;;
15063;SDS011;7631;52.088;5.088;2023-05-10T14:29:05;7.20;;;5.47;;
15063;SDS011;7631;52.088;5.088;2023-05-10T14:31:31;6.37;;;5.60;;
15063;SDS011;7631;52.088;5.088;2023-05-10T14:33:56;7.20;;;5.60;;
15063;SDS011;7631;52.088;5.088;2023-05-10T14:36:22;5.97;;;5.30;;
15063;SDS011;7631;52.088;5.088;2023-05-10T14:38:48;6.17;;;5.13;;
15063;SDS011;7631;52.088;5.088;2023-05-10T14:41:13;5.93;;;4.63;;
15063;SDS011;7631;52.088;5.088;2023-05-10T14:43:40;6.47;;;5.37;;
15063;SDS011;7631;52.088;5.088;2023-05-10T14:46:06;6.93;;;5.40;;
15063;SDS011;7631;52.088;5.088;2023-05-10T14:48:33;6.20;;;5.20;;
15063;SDS011;7631;52.088;5.088;2023-05-10T14:51:25;5.97;;;5.07;;
15063;SDS011;7631;52.088;5.088;2023-05-10T14:53:57;6.03;;;5.13;;
15063;SDS011;7631;52.088;5.088;2023-05-10T14:56:34;5.83;;;5.20;;
15063;SDS011;7631;52.088;5.088;2023-05-10T14:58:59;5.87;;;5.23;;
15063;SDS011;7631;52.088;5.088;2023-05-10T15:01:25;5.50;;;4.87;;
15063;SDS011;7631;52.088;5.088;2023-05-10T15:03:50;5.43;;;4.63;;
15063;SDS011;7631;52.088;5.088;2023-05-10T15:06:15;5.60;;;4.70;;
15063;SDS011;7631;52.088;5.088;2023-05-10T15:08:41;5.87;;;4.70;;
15063;SDS011;7631;52.088;5.088;2023-05-10T15:11:06;6.13;;;4.63;;
15063;SDS011;7631;52.088;5.088;2023-05-10T15:13:31;4.80;;;4.30;;
15063;SDS011;7631;52.088;5.088;2023-05-10T15:15:57;5.67;;;4.83;;
15063;SDS011;7631;52.088;5.088;2023-05-10T15:18:22;5.47;;;4.60;;
15063;SDS011;7631;52.088;5.088;2023-05-10T15:20:47;4.83;;;4.20;;
15063;SDS011;7631;52.088;5.088;2023-05-10T15:23:13;4.60;;;3.93;;
15063;SDS011;7631;52.088;5.088;2023-05-10T15:25:38;4.60;;;3.83;;